createdAt,value
2017-06-14T00:00:54.180Z,7.35
2017-06-14T00:03:22.683Z,8.52
2017-06-14T00:05:50.240Z,8.30
2017-06-14T00:08:17.803Z,8.70
2017-06-14T00:16:31.448Z,8.00
2017-06-14T00:18:59.008Z,7.97
2017-06-14T00:21:26.570Z,8.63
2017-06-14T00:23:54.308Z,9.05
2017-06-14T00:26:22.633Z,8.32
2017-06-14T00:28:50.197Z,8.40
2017-06-14T00:31:17.943Z,8.50
2017-06-14T00:33:45.492Z,10.07
2017-06-14T00:36:13.044Z,9.38
2017-06-14T00:38:40.934Z,9.07
2017-06-14T00:41:08.504Z,8.93
2017-06-14T00:43:36.065Z,9.98
2017-06-14T00:46:03.648Z,8.98
2017-06-14T00:48:31.203Z,10.02
2017-06-14T00:50:58.762Z,7.80
2017-06-14T00:53:26.477Z,9.73
2017-06-14T00:55:54.033Z,9.75
2017-06-14T00:58:21.586Z,9.95
2017-06-14T01:00:49.267Z,9.85
2017-06-14T01:03:16.832Z,10.82
2017-06-14T01:05:44.388Z,9.70
2017-06-14T01:08:12.132Z,10.38
2017-06-14T01:10:39.719Z,9.63
2017-06-14T01:13:07.292Z,9.85
2017-06-14T01:15:35.023Z,9.40
2017-06-14T01:18:02.584Z,11.05
2017-06-14T01:20:30.135Z,9.38
2017-06-14T01:22:57.831Z,10.07
2017-06-14T01:25:25.431Z,10.90
2017-06-14T01:27:53.758Z,9.10
2017-06-14T01:30:21.492Z,9.98
2017-06-14T01:32:49.051Z,8.95
2017-06-14T01:35:16.627Z,8.60
2017-06-14T01:37:44.370Z,8.05
2017-06-14T01:40:11.932Z,9.57
2017-06-14T01:42:39.508Z,9.50
2017-06-14T01:45:07.202Z,9.25
2017-06-14T01:47:34.752Z,8.98
2017-06-14T01:50:02.339Z,8.02
2017-06-14T01:52:30.044Z,8.00
2017-06-14T01:54:57.606Z,7.78
2017-06-14T01:57:25.162Z,8.10
2017-06-14T01:59:52.851Z,9.48
2017-06-14T02:02:20.413Z,8.40
2017-06-14T02:04:47.959Z,8.15
2017-06-14T02:07:15.570Z,7.55
2017-06-14T02:09:43.888Z,10.15
2017-06-14T02:12:11.459Z,6.68
2017-06-14T02:14:39.182Z,8.02
2017-06-14T02:17:07.512Z,7.35
2017-06-14T02:19:35.063Z,8.95
2017-06-14T02:22:02.745Z,7.30
2017-06-14T02:24:30.308Z,7.25
2017-06-14T02:26:57.858Z,7.20
2017-06-14T02:29:25.461Z,6.53
2017-06-14T02:31:53.835Z,8.18
2017-06-14T02:34:22.200Z,7.80
2017-06-14T02:36:50.545Z,6.82
2017-06-14T02:39:18.102Z,6.40
2017-06-14T02:41:45.753Z,5.50
2017-06-14T02:44:13.336Z,5.65
2017-06-14T02:46:40.893Z,6.07
2017-06-14T02:49:08.440Z,6.15
2017-06-14T02:51:36.159Z,6.85
2017-06-14T02:54:03.721Z,7.62
2017-06-14T02:56:31.283Z,6.10
2017-06-14T02:58:59.013Z,6.28
2017-06-14T03:01:27.359Z,6.18
2017-06-14T03:03:54.914Z,6.97
2017-06-14T03:06:28.335Z,6.03
2017-06-14T03:08:55.901Z,6.47
2017-06-14T03:11:23.459Z,6.70
2017-06-14T03:13:51.133Z,5.72
2017-06-14T03:16:18.699Z,6.72
2017-06-14T03:18:47.007Z,6.07
2017-06-14T03:21:14.735Z,6.80
2017-06-14T03:23:43.051Z,5.35
2017-06-14T03:26:10.604Z,5.80
2017-06-14T03:28:38.184Z,6.05
2017-06-14T03:31:05.729Z,6.20
2017-06-14T03:33:33.287Z,7.45
2017-06-14T03:36:00.972Z,5.90
2017-06-14T03:38:28.533Z,6.70
2017-06-14T03:40:56.145Z,6.43
2017-06-14T03:43:23.751Z,6.03
2017-06-14T03:45:52.116Z,7.03
2017-06-14T03:48:19.671Z,7.50
2017-06-14T03:50:47.581Z,6.72
2017-06-14T03:53:15.132Z,6.72
2017-06-14T03:55:42.687Z,6.50
2017-06-14T03:58:10.407Z,6.97
2017-06-14T04:00:37.971Z,7.28
2017-06-14T04:03:05.515Z,6.75
2017-06-14T04:05:33.136Z,8.00
2017-06-14T04:08:00.692Z,7.50
2017-06-14T04:10:28.243Z,7.75
2017-06-14T04:12:56.138Z,6.80
2017-06-14T04:15:23.715Z,7.45
2017-06-14T04:17:51.256Z,7.43
2017-06-14T04:20:18.968Z,6.47
2017-06-14T04:22:46.528Z,7.70
2017-06-14T04:25:14.068Z,6.65
2017-06-14T04:27:41.667Z,7.32
2017-06-14T04:30:09.223Z,7.75
2017-06-14T04:32:36.787Z,8.52
2017-06-14T04:35:04.383Z,6.87
2017-06-14T04:37:32.707Z,7.57
2017-06-14T04:40:00.253Z,6.32
2017-06-14T04:42:28.211Z,7.03
2017-06-14T04:44:55.769Z,7.95
2017-06-14T04:47:23.319Z,6.60
2017-06-14T04:49:50.999Z,6.68
2017-06-14T04:52:18.568Z,7.00
2017-06-14T04:54:46.118Z,7.65
2017-06-14T04:57:13.697Z,7.75
2017-06-14T04:59:41.244Z,7.90
2017-06-14T05:02:11.270Z,7.15
2017-06-14T05:04:36.452Z,7.40
2017-06-14T05:07:04.008Z,7.90
2017-06-14T05:09:31.578Z,7.07
2017-06-14T05:11:59.183Z,7.60
2017-06-14T05:14:26.736Z,7.07
2017-06-14T05:16:54.285Z,7.97
2017-06-14T05:19:22.267Z,6.95
2017-06-14T05:21:50.436Z,6.53
2017-06-14T05:24:17.987Z,6.68
2017-06-14T05:26:45.672Z,6.50
2017-06-14T05:29:13.990Z,7.15
2017-06-14T05:31:41.551Z,5.68
2017-06-14T05:34:09.358Z,7.28
2017-06-14T05:36:36.919Z,5.90
2017-06-14T05:39:04.466Z,6.30
2017-06-14T05:41:32.345Z,6.28
2017-06-14T05:43:59.891Z,5.78
2017-06-14T05:46:27.448Z,5.43
2017-06-14T05:48:55.043Z,6.05
2017-06-14T05:51:23.363Z,5.50
2017-06-14T05:53:50.927Z,6.45
2017-06-14T05:56:18.711Z,5.60
2017-06-14T05:58:46.260Z,5.47
2017-06-14T06:01:13.808Z,4.85
2017-06-14T06:03:41.711Z,5.43
2017-06-14T06:06:10.135Z,4.60
2017-06-14T06:08:37.692Z,5.18
2017-06-14T06:11:05.287Z,3.70
2017-06-14T06:13:32.833Z,5.05
2017-06-14T06:16:00.377Z,4.53
2017-06-14T06:18:28.188Z,4.43
2017-06-14T06:20:55.735Z,5.05
2017-06-14T06:23:24.118Z,4.07
2017-06-14T06:25:51.703Z,4.43
2017-06-14T06:28:20.016Z,4.15
2017-06-14T06:30:47.569Z,6.10
2017-06-14T06:33:15.161Z,4.37
2017-06-14T06:35:42.714Z,4.20
2017-06-14T06:38:10.270Z,4.22
2017-06-14T06:40:38.038Z,3.70
2017-06-14T06:43:05.590Z,3.70
2017-06-14T06:45:33.136Z,3.92
2017-06-14T06:48:00.957Z,3.20
2017-06-14T06:50:28.504Z,3.53
2017-06-14T06:52:56.108Z,3.78
2017-06-14T06:55:23.976Z,3.25
2017-06-14T06:57:51.529Z,2.97
2017-06-14T07:00:19.080Z,3.15
2017-06-14T07:02:47.736Z,2.97
2017-06-14T07:05:15.293Z,3.25
2017-06-14T07:07:42.856Z,3.30
2017-06-14T07:10:10.676Z,3.28
2017-06-14T07:12:38.226Z,3.00
2017-06-14T07:15:05.781Z,3.62
2017-06-14T07:17:33.452Z,3.00
2017-06-14T07:20:00.999Z,2.75
2017-06-14T07:22:28.545Z,3.20
2017-06-14T07:24:56.340Z,2.80
2017-06-14T07:27:23.889Z,3.20
2017-06-14T07:29:51.449Z,2.92
2017-06-14T07:32:19.196Z,2.58
2017-06-14T07:34:46.752Z,3.00
2017-06-14T07:37:15.064Z,3.00
2017-06-14T07:39:42.942Z,2.90
2017-06-14T07:42:10.495Z,2.85
2017-06-14T07:44:38.049Z,2.92
2017-06-14T07:47:05.812Z,2.40
2017-06-14T07:49:33.372Z,3.95
2017-06-14T07:52:00.925Z,3.40
2017-06-14T07:54:28.663Z,2.33
2017-06-14T07:56:56.217Z,3.05
2017-06-14T07:59:23.771Z,3.22
2017-06-14T08:01:52.220Z,3.10
2017-06-14T08:04:19.781Z,3.35
2017-06-14T08:06:47.336Z,2.12
2017-06-14T08:09:15.125Z,2.97
2017-06-14T08:11:42.685Z,2.95
2017-06-14T08:14:11.008Z,2.25
2017-06-14T08:16:38.691Z,2.45
2017-06-14T08:19:06.674Z,2.78
2017-06-14T08:21:34.307Z,2.65
2017-06-14T08:24:01.922Z,2.47
2017-06-14T08:26:29.492Z,2.65
2017-06-14T08:28:57.048Z,2.87
2017-06-14T08:31:24.775Z,2.95
2017-06-14T08:33:52.331Z,1.80
2017-06-14T08:36:19.880Z,2.28
2017-06-14T08:38:47.602Z,2.75
2017-06-14T08:41:15.155Z,2.53
2017-06-14T08:43:42.712Z,2.90
2017-06-14T08:46:10.402Z,2.80
2017-06-14T08:48:37.967Z,2.08
2017-06-14T08:51:05.524Z,2.80
2017-06-14T08:53:33.387Z,2.40
2017-06-14T08:56:01.169Z,2.05
2017-06-14T08:58:28.735Z,2.25
2017-06-14T09:00:56.724Z,2.03
2017-06-14T09:03:24.291Z,2.30
2017-06-14T09:05:52.627Z,1.80
2017-06-14T09:08:20.377Z,2.75
2017-06-14T09:10:48.004Z,2.90
2017-06-14T09:13:15.559Z,2.62
2017-06-14T09:15:44.105Z,2.87
2017-06-14T09:18:11.664Z,2.40
2017-06-14T09:20:39.228Z,2.78
2017-06-14T09:23:06.900Z,2.60
2017-06-14T09:25:34.459Z,2.35
2017-06-14T09:28:02.012Z,2.90
2017-06-14T09:30:29.736Z,3.12
2017-06-14T09:32:57.300Z,2.62
2017-06-14T09:35:24.865Z,2.30
2017-06-14T09:37:52.596Z,2.40
2017-06-14T09:40:20.149Z,2.85
2017-06-14T09:42:47.713Z,2.45
2017-06-14T09:45:15.403Z,2.50
2017-06-14T09:47:42.987Z,2.50
2017-06-14T09:50:10.543Z,2.40
2017-06-14T09:52:38.308Z,2.50
2017-06-14T09:55:05.865Z,2.28
2017-06-14T09:57:33.425Z,1.85
2017-06-14T10:00:01.101Z,2.05
2017-06-14T10:02:28.671Z,2.00
2017-06-14T10:04:56.992Z,1.90
2017-06-14T10:07:24.588Z,2.37
2017-06-14T10:09:52.140Z,1.90
2017-06-14T10:12:19.696Z,2.00
2017-06-14T10:14:47.483Z,2.20
2017-06-14T10:17:15.047Z,2.10
2017-06-14T10:19:43.499Z,2.20
2017-06-14T10:22:11.075Z,1.90
2017-06-14T10:24:38.622Z,1.70
2017-06-14T10:27:06.175Z,2.20
2017-06-14T10:29:34.016Z,2.12
2017-06-14T10:32:01.591Z,2.10
2017-06-14T10:34:29.160Z,2.08
2017-06-14T10:36:56.944Z,2.60
2017-06-14T10:39:24.507Z,2.17
2017-06-14T10:41:52.841Z,2.20
2017-06-14T10:44:20.459Z,2.00
2017-06-14T10:46:48.919Z,2.87
2017-06-14T10:49:16.496Z,2.07
2017-06-14T10:51:44.128Z,2.70
2017-06-14T10:54:11.688Z,2.05
2017-06-14T10:56:39.246Z,2.00
2017-06-14T10:59:06.996Z,2.20
2017-06-14T11:01:34.555Z,2.83
2017-06-14T11:04:02.111Z,2.85
2017-06-14T11:06:29.796Z,2.80
2017-06-14T11:08:57.361Z,2.17
2017-06-14T11:11:24.929Z,2.23
2017-06-14T11:13:53.608Z,2.90
2017-06-14T11:16:21.156Z,2.97
2017-06-14T11:18:48.704Z,2.10
2017-06-14T11:21:16.494Z,2.30
2017-06-14T11:23:44.048Z,2.80
2017-06-14T11:26:11.615Z,2.20
2017-06-14T11:28:39.304Z,2.30
2017-06-14T11:31:06.901Z,2.30
2017-06-14T11:33:34.451Z,2.67
2017-06-14T11:36:02.161Z,2.40
2017-06-14T11:38:30.484Z,2.10
2017-06-14T11:40:58.044Z,2.63
2017-06-14T11:43:25.787Z,2.63
2017-06-14T11:45:53.342Z,2.70
2017-06-14T11:48:20.903Z,2.40
2017-06-14T11:50:48.500Z,2.50
2017-06-14T11:53:16.055Z,2.13
2017-06-14T11:55:43.604Z,2.67
2017-06-14T11:58:11.379Z,1.80
2017-06-14T12:00:38.940Z,2.03
2017-06-14T12:03:06.504Z,2.17
2017-06-14T12:05:34.221Z,1.80
2017-06-14T12:08:02.636Z,2.30
2017-06-14T12:10:30.196Z,2.00
2017-06-14T12:12:57.886Z,1.73
2017-06-14T12:15:25.440Z,2.17
2017-06-14T12:17:53.032Z,2.03
2017-06-14T12:20:21.414Z,1.70
2017-06-14T12:22:49.748Z,1.43
2017-06-14T12:25:17.303Z,1.80
2017-06-14T12:27:45.191Z,1.47
2017-06-14T12:30:12.744Z,2.37
2017-06-14T12:32:40.299Z,1.97
2017-06-14T12:35:08.073Z,2.50
2017-06-14T12:37:35.623Z,2.23
2017-06-14T12:40:03.169Z,1.90
2017-06-14T12:42:30.922Z,2.90
2017-06-14T12:44:58.473Z,2.80
2017-06-14T12:47:26.023Z,2.10
2017-06-14T12:49:53.868Z,2.70
2017-06-14T12:52:21.411Z,2.93
2017-06-14T12:54:49.735Z,2.20
2017-06-14T12:57:17.417Z,2.30
2017-06-14T12:59:44.968Z,2.03
2017-06-14T13:02:12.525Z,2.10
2017-06-14T13:04:40.120Z,1.63
2017-06-14T13:07:07.858Z,2.57
2017-06-14T13:09:35.828Z,2.60
2017-06-14T13:12:03.824Z,2.70
2017-06-14T13:14:31.381Z,2.40
2017-06-14T13:16:58.939Z,2.50
2017-06-14T13:19:26.708Z,2.37
2017-06-14T13:21:54.260Z,2.47
2017-06-14T13:24:21.811Z,2.87
2017-06-14T13:26:49.680Z,2.27
2017-06-14T13:29:17.229Z,2.20
2017-06-14T13:31:44.782Z,3.00
2017-06-14T13:34:12.383Z,2.50
2017-06-14T13:36:40.692Z,1.97
2017-06-14T13:39:08.248Z,2.70
2017-06-14T13:41:35.960Z,2.60
2017-06-14T13:44:03.607Z,2.23
2017-06-14T13:46:31.155Z,1.93
2017-06-14T13:48:58.847Z,2.20
2017-06-14T13:51:26.479Z,2.27
2017-06-14T13:53:54.035Z,2.00
2017-06-14T13:56:22.037Z,2.50
2017-06-14T13:58:49.592Z,3.63
2017-06-14T14:01:17.153Z,2.93
2017-06-14T14:03:44.747Z,2.47
2017-06-14T14:06:12.299Z,3.17
2017-06-14T14:08:40.617Z,2.13
2017-06-14T14:11:08.518Z,2.03
2017-06-14T14:13:36.071Z,2.30
2017-06-14T14:16:03.624Z,2.00
2017-06-14T14:18:31.307Z,3.20
2017-06-14T14:20:58.859Z,2.90
2017-06-14T14:23:26.407Z,2.90
2017-06-14T14:25:54.009Z,2.73
2017-06-14T14:28:21.567Z,2.87
2017-06-14T14:30:49.879Z,2.43
2017-06-14T14:33:17.579Z,2.50
2017-06-14T14:35:45.154Z,2.37
2017-06-14T14:38:13.465Z,2.43
2017-06-14T14:40:42.003Z,2.60
2017-06-14T14:43:09.547Z,2.87
2017-06-14T14:45:37.096Z,2.67
2017-06-14T14:48:04.971Z,2.57
2017-06-14T14:50:32.527Z,2.87
2017-06-14T14:53:00.083Z,2.57
2017-06-14T14:55:28.079Z,2.57
2017-06-14T14:57:55.629Z,2.90
2017-06-14T15:00:23.185Z,2.87
2017-06-14T15:02:51.047Z,2.40
2017-06-14T15:05:18.599Z,2.60
2017-06-14T15:07:46.151Z,2.67
2017-06-14T15:10:13.733Z,3.50
2017-06-14T15:12:41.276Z,3.30
2017-06-14T15:15:08.829Z,3.43
2017-06-14T15:17:36.812Z,3.00
2017-06-14T15:20:04.355Z,3.83
2017-06-14T15:22:31.900Z,2.73
2017-06-14T15:24:59.560Z,2.57
2017-06-14T15:27:27.111Z,3.57
2017-06-14T15:29:54.691Z,3.20
2017-06-14T15:32:22.300Z,2.60
2017-06-14T15:34:49.851Z,2.70
2017-06-14T15:37:18.188Z,2.50
2017-06-14T15:39:46.181Z,3.50
2017-06-14T15:42:13.756Z,3.17
2017-06-14T15:44:41.310Z,2.97
2017-06-14T15:47:09.669Z,2.37
2017-06-14T15:49:37.220Z,2.50
2017-06-14T15:52:04.764Z,3.43
2017-06-14T15:54:32.561Z,3.20
2017-06-14T15:57:00.112Z,4.03
2017-06-14T15:59:27.670Z,3.47
2017-06-14T16:01:55.282Z,3.30
2017-06-14T16:04:22.843Z,3.03
2017-06-14T16:06:50.414Z,2.90
2017-06-14T16:09:18.148Z,3.30
2017-06-14T16:11:45.708Z,3.10
2017-06-14T16:14:13.265Z,2.63
2017-06-14T16:16:41.211Z,4.27
2017-06-14T16:19:09.545Z,3.20
2017-06-14T16:21:37.117Z,3.63
2017-06-14T16:24:04.739Z,3.40
2017-06-14T16:26:32.299Z,3.63
2017-06-14T16:28:59.867Z,3.10
2017-06-14T16:31:27.608Z,3.03
2017-06-14T16:33:55.169Z,2.60
2017-06-14T16:36:23.496Z,3.07
2017-06-14T16:38:51.252Z,3.13
2017-06-14T16:41:18.834Z,3.13
2017-06-14T16:43:46.449Z,2.83
2017-06-14T16:46:14.150Z,3.00
2017-06-14T16:48:41.711Z,3.30
2017-06-14T16:51:09.274Z,2.50
2017-06-14T16:53:36.896Z,2.60
2017-06-14T16:56:04.461Z,2.70
2017-06-14T16:58:32.026Z,2.33
2017-06-14T17:00:59.828Z,3.43
2017-06-14T17:03:27.422Z,3.40
2017-06-14T17:05:54.984Z,3.73
2017-06-14T17:08:22.733Z,2.80
2017-06-14T17:10:51.083Z,4.43
2017-06-14T17:13:18.657Z,2.90
2017-06-14T17:15:47.180Z,3.10
2017-06-14T17:18:14.752Z,3.03
2017-06-14T17:20:42.355Z,2.87
2017-06-14T17:23:10.104Z,2.73
2017-06-14T17:25:37.676Z,3.00
2017-06-14T17:28:05.238Z,2.90
2017-06-14T17:30:32.972Z,3.23
2017-06-14T17:33:00.552Z,3.00
2017-06-14T17:35:28.113Z,3.13
2017-06-14T17:37:56.187Z,2.90
2017-06-14T17:40:23.786Z,2.90
2017-06-14T17:42:51.365Z,3.03
2017-06-14T17:45:19.116Z,3.10
2017-06-14T17:47:46.809Z,3.03
2017-06-14T17:50:14.396Z,2.80
2017-06-14T17:52:42.161Z,3.10
2017-06-14T17:55:09.939Z,2.70
2017-06-14T17:57:38.276Z,3.23
2017-06-14T18:00:05.884Z,3.08
2017-06-14T18:02:33.644Z,3.07
2017-06-14T18:05:01.203Z,2.87
2017-06-14T18:07:28.977Z,3.33
2017-06-14T18:09:56.703Z,2.40
2017-06-14T18:12:24.267Z,2.62
2017-06-14T18:14:51.959Z,2.45
2017-06-14T18:17:19.523Z,3.00
2017-06-14T18:19:47.084Z,3.00
2017-06-14T18:22:17.031Z,2.90
2017-06-14T18:24:44.633Z,3.50
2017-06-14T18:27:12.456Z,3.33
2017-06-14T18:29:40.377Z,3.47
2017-06-14T18:32:07.953Z,3.40
2017-06-14T18:34:35.839Z,3.55
2017-06-14T18:37:06.786Z,4.20
2017-06-14T18:39:34.348Z,3.00
2017-06-14T18:42:01.916Z,3.22
2017-06-14T18:44:29.757Z,2.90
2017-06-14T18:46:58.220Z,3.45
2017-06-14T18:49:25.787Z,3.37
2017-06-14T18:51:54.249Z,3.05
2017-06-14T18:54:22.164Z,3.20
2017-06-14T18:56:49.740Z,3.20
2017-06-14T18:59:17.524Z,3.10
2017-06-14T19:01:45.875Z,3.75
2017-06-14T19:04:14.422Z,3.83
2017-06-14T19:06:42.331Z,3.08
2017-06-14T19:09:10.181Z,3.30
2017-06-14T19:11:38.063Z,3.03
2017-06-14T19:14:05.776Z,3.03
2017-06-14T19:16:33.361Z,3.75
2017-06-14T19:19:01.116Z,4.07
2017-06-14T19:21:28.828Z,3.05
2017-06-14T19:24:02.014Z,5.15
2017-06-14T19:26:29.712Z,3.47
2017-06-14T19:28:57.283Z,3.90
2017-06-14T19:31:25.631Z,3.90
2017-06-14T19:33:53.361Z,4.03
2017-06-14T19:36:27.818Z,3.92
2017-06-14T19:38:56.375Z,3.20
2017-06-14T19:41:24.143Z,4.28
2017-06-14T19:43:51.934Z,4.40
2017-06-14T19:46:19.657Z,4.15
2017-06-14T19:48:48.183Z,4.07
2017-06-14T19:51:15.865Z,3.80
2017-06-14T19:53:43.644Z,4.72
2017-06-14T19:56:11.301Z,4.70
2017-06-14T19:58:38.870Z,4.32
2017-06-14T20:01:06.646Z,4.40
2017-06-14T20:03:34.217Z,5.50
2017-06-14T20:06:02.253Z,3.85
2017-06-14T20:08:30.099Z,4.93
2017-06-14T20:10:57.687Z,5.87
2017-06-14T20:13:25.248Z,4.72
2017-06-14T20:15:52.932Z,5.55
2017-06-14T20:18:20.493Z,4.60
2017-06-14T20:20:48.057Z,4.60
2017-06-14T20:23:15.799Z,5.10
2017-06-14T20:25:43.347Z,4.53
2017-06-14T20:28:10.914Z,5.87
2017-06-14T20:30:38.649Z,6.53
2017-06-14T20:33:06.206Z,6.65
2017-06-14T20:35:33.771Z,7.32
2017-06-14T20:38:01.349Z,6.70
2017-06-14T20:40:28.903Z,7.05
2017-06-14T20:42:56.471Z,6.57
2017-06-14T20:45:24.208Z,7.05
2017-06-14T20:47:51.771Z,7.45
2017-06-14T20:50:19.332Z,8.15
2017-06-14T20:52:47.091Z,7.22
2017-06-14T20:55:14.652Z,6.93
2017-06-14T20:57:42.207Z,7.05
2017-06-14T21:00:09.919Z,8.35
2017-06-14T21:02:37.700Z,7.40
2017-06-14T21:05:05.253Z,6.78
2017-06-14T21:07:32.977Z,8.43
2017-06-14T21:10:00.528Z,7.75
2017-06-14T21:12:28.105Z,8.40
2017-06-14T21:14:55.708Z,7.95
2017-06-14T21:17:24.028Z,7.97
2017-06-14T21:19:51.856Z,8.15
2017-06-14T21:22:19.646Z,7.90
2017-06-14T21:24:47.227Z,7.65
2017-06-14T21:27:14.853Z,7.68
2017-06-14T21:29:42.696Z,9.02
2017-06-14T21:32:10.255Z,8.82
2017-06-14T21:34:38.631Z,7.47
2017-06-14T21:37:06.586Z,8.35
2017-06-14T21:39:35.283Z,9.23
2017-06-14T21:42:03.807Z,7.53
2017-06-14T21:44:31.915Z,9.40
2017-06-14T21:46:59.471Z,8.02
2017-06-14T21:49:27.015Z,8.77
2017-06-14T21:51:54.915Z,9.50
2017-06-14T21:54:22.467Z,8.18
2017-06-14T21:56:50.027Z,9.25
2017-06-14T21:59:17.752Z,9.43
2017-06-14T22:01:45.320Z,8.35
2017-06-14T22:04:12.872Z,8.80
2017-06-14T22:06:40.603Z,9.25
2017-06-14T22:09:08.920Z,8.95
2017-06-14T22:11:36.475Z,8.10
2017-06-14T22:14:04.064Z,9.75
2017-06-14T22:16:31.613Z,9.30
2017-06-14T22:18:59.172Z,10.75
2017-06-14T22:21:26.766Z,9.27
2017-06-14T22:23:55.092Z,9.65
2017-06-14T22:26:22.654Z,10.13
2017-06-14T22:28:50.668Z,10.50
2017-06-14T22:31:18.236Z,10.10
2017-06-14T22:33:45.796Z,9.82
2017-06-14T22:36:13.500Z,10.43
2017-06-14T22:38:41.061Z,9.82
2017-06-14T22:41:08.633Z,10.98
2017-06-14T22:43:36.308Z,9.50
2017-06-14T22:46:03.870Z,10.43
2017-06-14T22:48:31.424Z,9.98
2017-06-14T22:50:59.112Z,10.60
2017-06-14T22:53:27.450Z,10.35
2017-06-14T22:55:54.999Z,8.75
2017-06-14T22:58:23.003Z,9.60
2017-06-14T23:00:50.560Z,8.93
2017-06-14T23:03:18.118Z,9.90
2017-06-14T23:05:46.204Z,8.77
2017-06-14T23:08:13.768Z,8.85
2017-06-14T23:10:42.081Z,8.18
2017-06-14T23:13:09.962Z,9.70
2017-06-14T23:15:37.509Z,8.40
2017-06-14T23:18:05.064Z,9.82
2017-06-14T23:20:32.684Z,10.50
2017-06-14T23:23:00.235Z,8.23
2017-06-14T23:25:27.815Z,8.82
2017-06-14T23:27:56.327Z,9.07
2017-06-14T23:30:23.876Z,8.30
2017-06-14T23:32:51.424Z,9.02
2017-06-14T23:35:19.920Z,7.12
2017-06-14T23:37:47.479Z,9.43
2017-06-14T23:40:15.034Z,8.23
2017-06-14T23:42:42.620Z,8.20
2017-06-14T23:45:10.172Z,8.52
2017-06-14T23:47:37.732Z,8.52
2017-06-14T23:50:05.725Z,8.32
2017-06-14T23:52:33.270Z,9.10
2017-06-14T23:55:00.820Z,10.25
2017-06-14T23:57:28.555Z,9.80
2017-06-14T23:59:56.115Z,9.00
